Kenner, LA (70063)

8:53 PM CDT on September 04, 2015 (GMT -0500)
New Orleans International | | Change Station
CLOSE
Current Station
Airport
Location: New Orleans,
Elevation: 3 ft
Nearby Weather Stations

Elev 3 ft 29.99 °N, 90.25 °W | Updated 1 hour ago

Mostly Cloudy
Mostly Cloudy
80 °F
Feels Like 84 °F
N
8
Wind Variable Wind from South

Today
High -- | Low -- °F
--% Chance of Precip.
Yesterday
High -- | Low -- °F
Precip. -- in
6:39 AM 7:20 PM
Waning Gibbous, 54% visible
Pressure 29.96 in
Visibility 10.0 miles
Clouds Few 2500 ft
Few 10000 ft
Mostly Cloudy 25000 ft
Heat Index 84 °F
Dew Point 73 °F
Humidity 79%
Rainfall 0.04 in
Snow Depth Not available.
UV 0 out of 12
Pollen 7.50 out of 12
Air Quality Not available.
Flu Activity Not available.
METAR KMSY 050053Z 18007KT 10SM FEW025 FEW100 BKN250 27/23 A2995 RMK AO2 SLP146 CB DSNT SW T02670228 $
Pressure 29.96 in
Visibility 10.0 miles
Clouds Few 2500 ft
Few 10000 ft
Mostly Cloudy 25000 ft
Heat Index 84 °F
Dew Point 73 °F
Humidity 79%
Rainfall 0.04 in
Snow Depth Not available.
UV 0 out of 12
Pollen 7.50 out of 12
Air Quality Not available.
Flu Activity Not available.
METAR KMSY 050053Z 18007KT 10SM FEW025 FEW100 BKN250 27/23 A2995 RMK AO2 SLP146 CB DSNT SW T02670228 $

10-Day Weather Forecast

×

Almanac

Astronomy

Sep. 04, 2015 Rise Set
Actual Time
Civil Twilight
Nautical Twilight
Astronomical Twilight
Moon
Length of Visible Light
Length of Day
Tomorrow will be .
, % of the Moon is Illuminated

Today's Extremes

State Highs State Lows

Community

WunderPhotos

Upload Photos

1,852,375 photos uploaded!

WunderBlogs® & News

Nearby

Air Quality

  Air Quality AQ Index Pollutant
Not available.

Snow Depth

Station Depth Elevation

Earthquake Activity

City Distance Mag. Time & Date
Minimum magnitude displayed is 2.5.

Coastal Water Temperatures

Place Temperature

Stations

Nearby Weather Stations

Station Location Temp. Windchill Dew Point Humidity Wind Precip. Elev Updated Type